sensor_id;sensor_type;location;lat;lon;timestamp;pressure;altitude;pressure_sealevel;temperature;humidity
3812;BME280;1921;49.368;11.068;2023-04-26T00:02:12;97580.19;;;5.32;77.75
3812;BME280;1921;49.368;11.068;2023-04-26T00:04:38;97533.06;;;4.93;78.34
3812;BME280;1921;49.368;11.068;2023-04-26T00:07:04;97284.41;;;3.45;78.35
3812;BME280;1921;49.368;11.068;2023-04-26T00:09:30;97545.41;;;4.99;78.49
3812;BME280;1921;49.368;11.068;2023-04-26T00:11:56;97353.06;;;3.93;78.12
3812;BME280;1921;49.368;11.068;2023-04-26T00:14:22;97615.16;;;5.36;77.97
3812;BME280;1921;49.368;11.068;2023-04-26T00:16:48;97355.47;;;3.67;78.00
3812;BME280;1921;49.368;11.068;2023-04-26T00:19:14;97442.72;;;4.18;78.29
3812;BME280;1921;49.368;11.068;2023-04-26T00:21:40;97451.53;;;4.16;78.68
3812;BME280;1921;49.368;11.068;2023-04-26T00:24:07;97526.00;;;4.57;78.99
3812;BME280;1921;49.368;11.068;2023-04-26T00:26:33;97428.13;;;3.99;79.50
3812;BME280;1921;49.368;11.068;2023-04-26T00:29:00;97670.66;;;5.42;80.47
3812;BME280;1921;49.368;11.068;2023-04-26T00:31:26;97472.13;;;3.98;80.01
3812;BME280;1921;49.368;11.068;2023-04-26T00:33:52;97535.59;;;4.38;80.33
3812;BME280;1921;49.368;11.068;2023-04-26T00:36:18;97516.59;;;4.29;79.89
3812;BME280;1921;49.368;11.068;2023-04-26T00:38:47;97676.84;;;5.21;79.69
3812;BME280;1921;49.368;11.068;2023-04-26T00:41:13;97422.78;;;3.44;79.78
3812;BME280;1921;49.368;11.068;2023-04-26T00:43:39;97495.50;;;3.77;80.22
3812;BME280;1921;49.368;11.068;2023-04-26T00:46:07;97551.47;;;4.33;80.31
3812;BME280;1921;49.368;11.068;2023-04-26T00:48:33;97595.06;;;4.46;80.28
3812;BME280;1921;49.368;11.068;2023-04-26T00:51:01;97312.44;;;2.72;80.55
3812;BME280;1921;49.368;11.068;2023-04-26T00:53:26;97605.97;;;4.20;79.92
3812;BME280;1921;49.368;11.068;2023-04-26T00:55:53;97577.59;;;4.20;80.04
3812;BME280;1921;49.368;11.068;2023-04-26T00:58:19;97057.78;;;0.87;80.19
3812;BME280;1921;49.368;11.068;2023-04-26T01:00:45;97422.13;;;3.13;80.17
3812;BME280;1921;49.368;11.068;2023-04-26T01:03:11;97524.41;;;3.71;80.38
3812;BME280;1921;49.368;11.068;2023-04-26T01:05:40;97525.63;;;3.76;80.51
3812;BME280;1921;49.368;11.068;2023-04-26T01:08:06;97441.63;;;3.16;79.99
3812;BME280;1921;49.368;11.068;2023-04-26T01:10:33;97427.13;;;2.95;79.81
3812;BME280;1921;49.368;11.068;2023-04-26T01:13:00;97475.66;;;3.00;79.97
3812;BME280;1921;49.368;11.068;2023-04-26T01:15:25;97437.94;;;2.89;80.63
3812;BME280;1921;49.368;11.068;2023-04-26T01:17:58;97433.81;;;2.58;81.21
3812;BME280;1921;49.368;11.068;2023-04-26T01:20:24;97548.41;;;3.42;81.00
3812;BME280;1921;49.368;11.068;2023-04-26T01:22:51;97639.53;;;3.91;81.26
3812;BME280;1921;49.368;11.068;2023-04-26T01:25:17;97586.69;;;3.57;82.28
3812;BME280;1921;49.368;11.068;2023-04-26T01:27:43;97466.09;;;2.62;82.47
3812;BME280;1921;49.368;11.068;2023-04-26T01:30:09;97645.91;;;3.87;82.92
3812;BME280;1921;49.368;11.068;2023-04-26T01:32:35;97662.72;;;3.82;83.29
3812;BME280;1921;49.368;11.068;2023-04-26T01:35:02;97540.16;;;2.89;82.84
3812;BME280;1921;49.368;11.068;2023-04-26T01:37:30;97605.19;;;3.21;83.51
3812;BME280;1921;49.368;11.068;2023-04-26T01:39:55;97562.25;;;2.91;84.51
3812;BME280;1921;49.368;11.068;2023-04-26T01:42:21;97556.06;;;2.73;84.03
3812;BME280;1921;49.368;11.068;2023-04-26T01:44:47;97498.09;;;2.38;85.46
3812;BME280;1921;49.368;11.068;2023-04-26T01:47:13;97716.31;;;3.68;85.26
3812;BME280;1921;49.368;11.068;2023-04-26T01:49:38;97524.69;;;2.49;85.80
3812;BME280;1921;49.368;11.068;2023-04-26T01:52:04;97486.78;;;2.20;86.01
3812;BME280;1921;49.368;11.068;2023-04-26T01:54:30;97455.69;;;2.02;86.26
3812;BME280;1921;49.368;11.068;2023-04-26T01:56:55;97508.31;;;2.50;86.17
3812;BME280;1921;49.368;11.068;2023-04-26T01:59:21;97596.72;;;3.00;86.46
3812;BME280;1921;49.368;11.068;2023-04-26T02:01:47;97345.97;;;1.51;86.35
3812;BME280;1921;49.368;11.068;2023-04-26T02:04:13;97557.47;;;2.77;87.53
3812;BME280;1921;49.368;11.068;2023-04-26T02:06:38;97521.78;;;2.63;87.86
3812;BME280;1921;49.368;11.068;2023-04-26T02:09:06;97564.13;;;2.80;88.02
3812;BME280;1921;49.368;11.068;2023-04-26T02:11:33;97589.00;;;3.10;88.61
3812;BME280;1921;49.368;11.068;2023-04-26T02:13:59;97655.22;;;3.59;89.19
3812;BME280;1921;49.368;11.068;2023-04-26T02:16:25;97616.13;;;3.44;89.35
3812;BME280;1921;49.368;11.068;2023-04-26T02:18:51;97617.75;;;3.45;88.82
3812;BME280;1921;49.368;11.068;2023-04-26T02:21:18;97647.13;;;3.83;88.99
3812;BME280;1921;49.368;11.068;2023-04-26T02:23:44;97572.16;;;3.46;88.35
3812;BME280;1921;49.368;11.068;2023-04-26T02:26:10;97637.06;;;3.90;87.61
3812;BME280;1921;49.368;11.068;2023-04-26T02:28:38;97548.00;;;3.37;86.98
3812;BME280;1921;49.368;11.068;2023-04-26T02:31:04;97342.81;;;2.09;86.22
3812;BME280;1921;49.368;11.068;2023-04-26T02:33:30;97545.97;;;3.31;86.13
3812;BME280;1921;49.368;11.068;2023-04-26T02:35:56;97226.66;;;1.14;85.58
3812;BME280;1921;49.368;11.068;2023-04-26T02:38:23;97588.16;;;3.30;85.83
3812;BME280;1921;49.368;11.068;2023-04-26T02:40:58;97532.56;;;2.97;85.90
3812;BME280;1921;49.368;11.068;2023-04-26T02:43:24;97509.91;;;2.81;86.00
3812;BME280;1921;49.368;11.068;2023-04-26T02:45:50;97555.41;;;3.11;87.18
3812;BME280;1921;49.368;11.068;2023-04-26T02:48:15;97508.41;;;2.79;87.97
3812;BME280;1921;49.368;11.068;2023-04-26T02:50:41;97436.00;;;2.22;87.08
3812;BME280;1921;49.368;11.068;2023-04-26T02:53:07;97573.56;;;3.10;87.37
3812;BME280;1921;49.368;11.068;2023-04-26T02:55:32;97484.34;;;2.59;87.45
3812;BME280;1921;49.368;11.068;2023-04-26T02:57:58;97562.66;;;2.96;87.52
3812;BME280;1921;49.368;11.068;2023-04-26T03:00:24;97469.63;;;2.30;87.33
3812;BME280;1921;49.368;11.068;2023-04-26T03:02:50;97543.84;;;2.65;87.53
3812;BME280;1921;49.368;11.068;2023-04-26T03:05:16;97586.81;;;2.95;87.51
3812;BME280;1921;49.368;11.068;2023-04-26T03:07:42;97407.81;;;1.80;87.80
3812;BME280;1921;49.368;11.068;2023-04-26T03:10:08;97312.97;;;1.05;87.98
3812;BME280;1921;49.368;11.068;2023-04-26T03:12:34;97427.13;;;1.75;88.08
3812;BME280;1921;49.368;11.068;2023-04-26T03:15:00;97574.81;;;2.75;87.77
3812;BME280;1921;49.368;11.068;2023-04-26T03:17:28;97475.56;;;2.00;87.07
3812;BME280;1921;49.368;11.068;2023-04-26T03:19:54;97483.81;;;2.04;87.30
3812;BME280;1921;49.368;11.068;2023-04-26T03:22:20;97428.22;;;1.61;87.08
3812;BME280;1921;49.368;11.068;2023-04-26T03:24:45;97539.41;;;2.16;87.29
3812;BME280;1921;49.368;11.068;2023-04-26T03:27:12;97622.84;;;2.65;87.84
3812;BME280;1921;49.368;11.068;2023-04-26T03:29:38;97629.06;;;2.62;87.91
3812;BME280;1921;49.368;11.068;2023-04-26T03:32:04;97548.63;;;1.98;87.51
3812;BME280;1921;49.368;11.068;2023-04-26T03:34:30;97501.97;;;1.28;87.81
3812;BME280;1921;49.368;11.068;2023-04-26T03:36:56;97639.84;;;2.35;88.39
3812;BME280;1921;49.368;11.068;2023-04-26T03:39:22;97592.91;;;1.80;88.62
3812;BME280;1921;49.368;11.068;2023-04-26T03:41:48;97418.19;;;0.84;88.10
3812;BME280;1921;49.368;11.068;2023-04-26T03:44:13;97466.84;;;1.18;87.61
3812;BME280;1921;49.368;11.068;2023-04-26T03:46:40;97655.59;;;2.00;88.87
3812;BME280;1921;49.368;11.068;2023-04-26T03:49:06;97494.06;;;1.20;88.65
3812;BME280;1921;49.368;11.068;2023-04-26T03:51:32;97472.75;;;0.97;88.70
3812;BME280;1921;49.368;11.068;2023-04-26T03:53:58;97584.50;;;1.67;88.88
3812;BME280;1921;49.368;11.068;2023-04-26T03:56:24;97504.59;;;1.06;89.14
3812;BME280;1921;49.368;11.068;2023-04-26T03:58:50;97581.22;;;1.44;89.35
3812;BME280;1921;49.368;11.068;2023-04-26T04:01:16;97609.53;;;1.65;89.57
3812;BME280;1921;49.368;11.068;2023-04-26T04:03:41;97611.41;;;1.63;89.90
3812;BME280;1921;49.368;11.068;2023-04-26T04:06:07;97565.47;;;1.38;90.10
3812;BME280;1921;49.368;11.068;2023-04-26T04:08:33;97586.53;;;1.09;90.31
3812;BME280;1921;49.368;11.068;2023-04-26T04:10:59;97690.03;;;2.09;90.20
3812;BME280;1921;49.368;11.068;2023-04-26T04:13:25;97408.16;;;0.04;90.10
3812;BME280;1921;49.368;11.068;2023-04-26T04:15:51;97645.31;;;1.46;90.92
3812;BME280;1921;49.368;11.068;2023-04-26T04:18:17;97708.50;;;2.14;91.83
3812;BME280;1921;49.368;11.068;2023-04-26T04:20:43;97290.06;;;-0.60;92.67
3812;BME280;1921;49.368;11.068;2023-04-26T04:23:09;97714.22;;;2.18;93.15
3812;BME280;1921;49.368;11.068;2023-04-26T04:25:35;97470.00;;;0.67;94.02
3812;BME280;1921;49.368;11.068;2023-04-26T04:28:01;97536.06;;;1.30;95.05
3812;BME280;1921;49.368;11.068;2023-04-26T04:30:28;97365.09;;;0.52;97.26
3812;BME280;1921;49.368;11.068;2023-04-26T04:32:55;97343.25;;;0.69;97.92
3812;BME280;1921;49.368;11.068;2023-04-26T04:35:23;97564.88;;;2.40;99.01
3812;BME280;1921;49.368;11.068;2023-04-26T04:37:54;97684.41;;;3.69;97.79
3812;BME280;1921;49.368;11.068;2023-04-26T04:40:22;97531.47;;;2.90;97.47
3812;BME280;1921;49.368;11.068;2023-04-26T04:42:48;97468.78;;;3.20;94.85
3812;BME280;1921;49.368;11.068;2023-04-26T04:45:15;97615.16;;;4.52;87.91
3812;BME280;1921;49.368;11.068;2023-04-26T04:47:42;97449.72;;;3.89;83.33
3812;BME280;1921;49.368;11.068;2023-04-26T04:50:08;97758.25;;;6.37;77.09
3812;BME280;1921;49.368;11.068;2023-04-26T04:52:34;97751.81;;;6.77;77.91
3812;BME280;1921;49.368;11.068;2023-04-26T04:55:01;97520.97;;;5.56;73.58
3812;BME280;1921;49.368;11.068;2023-04-26T04:57:28;97591.22;;;6.59;74.55
3812;BME280;1921;49.368;11.068;2023-04-26T04:59:54;97614.47;;;7.03;70.41
3812;BME280;1921;49.368;11.068;2023-04-26T05:02:20;97664.78;;;7.52;66.59
3812;BME280;1921;49.368;11.068;2023-04-26T05:04:46;97611.63;;;7.64;64.37
3812;BME280;1921;49.368;11.068;2023-04-26T05:07:13;97697.47;;;8.70;64.91
3812;BME280;1921;49.368;11.068;2023-04-26T05:09:41;97648.88;;;8.79;64.67
3812;BME280;1921;49.368;11.068;2023-04-26T05:12:07;97266.53;;;6.83;62.88
3812;BME280;1921;49.368;11.068;2023-04-26T05:14:33;97528.19;;;9.04;59.09
3812;BME280;1921;49.368;11.068;2023-04-26T05:16:59;97476.13;;;9.12;55.00
3812;BME280;1921;49.368;11.068;2023-04-26T05:19:24;97527.66;;;9.71;56.19
3812;BME280;1921;49.368;11.068;2023-04-26T05:21:51;97703.41;;;10.60;54.04
3812;BME280;1921;49.368;11.068;2023-04-26T05:24:17;97546.34;;;9.75;52.93
3812;BME280;1921;49.368;11.068;2023-04-26T05:26:43;97527.22;;;10.28;52.24
3812;BME280;1921;49.368;11.068;2023-04-26T05:29:09;97656.19;;;11.52;49.49
3812;BME280;1921;49.368;11.068;2023-04-26T05:31:34;97747.56;;;12.47;51.60
3812;BME280;1921;49.368;11.068;2023-04-26T05:34:01;97492.34;;;10.73;48.72
3812;BME280;1921;49.368;11.068;2023-04-26T05:36:26;97592.41;;;11.25;48.54
3812;BME280;1921;49.368;11.068;2023-04-26T05:38:52;97460.38;;;10.65;49.36
3812;BME280;1921;49.368;11.068;2023-04-26T05:41:18;97594.16;;;10.50;49.19
3812;BME280;1921;49.368;11.068;2023-04-26T05:43:46;97578.19;;;10.08;51.43
3812;BME280;1921;49.368;11.068;2023-04-26T05:46:12;97672.31;;;9.82;50.86
3812;BME280;1921;49.368;11.068;2023-04-26T05:48:37;97457.59;;;7.07;56.08
3812;BME280;1921;49.368;11.068;2023-04-26T05:51:06;97459.91;;;6.67;57.07
3812;BME280;1921;49.368;11.068;2023-04-26T05:53:32;97673.34;;;8.03;58.66
3812;BME280;1921;49.368;11.068;2023-04-26T05:55:58;97661.41;;;9.39;56.19
3812;BME280;1921;49.368;11.068;2023-04-26T05:58:24;97748.97;;;9.79;51.97
3812;BME280;1921;49.368;11.068;2023-04-26T06:00:49;97469.44;;;8.23;50.57
3812;BME280;1921;49.368;11.068;2023-04-26T06:03:15;97670.16;;;9.85;52.01
3812;BME280;1921;49.368;11.068;2023-04-26T06:05:41;97635.22;;;9.71;51.75
3812;BME280;1921;49.368;11.068;2023-04-26T06:08:07;97543.22;;;9.25;49.33
3812;BME280;1921;49.368;11.068;2023-04-26T06:10:35;97622.28;;;9.63;53.03
3812;BME280;1921;49.368;11.068;2023-04-26T06:13:02;97606.44;;;10.19;52.12
3812;BME280;1921;49.368;11.068;2023-04-26T06:15:28;97667.16;;;9.65;50.50
3812;BME280;1921;49.368;11.068;2023-04-26T06:17:56;97635.06;;;8.78;51.50
3812;BME280;1921;49.368;11.068;2023-04-26T06:20:22;97445.16;;;7.51;54.98
3812;BME280;1921;49.368;11.068;2023-04-26T06:22:48;97748.19;;;8.82;56.08
3812;BME280;1921;49.368;11.068;2023-04-26T06:25:13;97571.75;;;8.14;53.91
3812;BME280;1921;49.368;11.068;2023-04-26T06:27:42;97684.47;;;8.70;53.33
3812;BME280;1921;49.368;11.068;2023-04-26T06:30:09;97537.56;;;7.27;55.02
3812;BME280;1921;49.368;11.068;2023-04-26T06:32:37;97816.06;;;9.69;53.49
3812;BME280;1921;49.368;11.068;2023-04-26T06:35:03;97695.84;;;7.44;57.13
3812;BME280;1921;49.368;11.068;2023-04-26T06:37:29;97670.53;;;7.88;61.56
3812;BME280;1921;49.368;11.068;2023-04-26T06:39:54;97736.13;;;9.14;55.12
3812;BME280;1921;49.368;11.068;2023-04-26T06:42:20;97482.13;;;8.26;54.88
3812;BME280;1921;49.368;11.068;2023-04-26T06:44:46;97647.59;;;8.58;53.75
3812;BME280;1921;49.368;11.068;2023-04-26T06:47:12;97755.72;;;7.76;57.13
3812;BME280;1921;49.368;11.068;2023-04-26T06:49:38;97692.28;;;7.79;55.70
3812;BME280;1921;49.368;11.068;2023-04-26T06:52:05;97649.56;;;7.65;54.48
3812;BME280;1921;49.368;11.068;2023-04-26T06:54:34;97535.31;;;6.56;56.39
3812;BME280;1921;49.368;11.068;2023-04-26T06:57:00;97704.50;;;7.26;58.03
3812;BME280;1921;49.368;11.068;2023-04-26T06:59:25;97507.56;;;7.25;57.76
3812;BME280;1921;49.368;11.068;2023-04-26T07:01:51;97717.97;;;7.98;54.93
3812;BME280;1921;49.368;11.068;2023-04-26T07:04:17;97432.81;;;5.32;57.79
3812;BME280;1921;49.368;11.068;2023-04-26T07:06:45;97612.53;;;5.63;62.12
3812;BME280;1921;49.368;11.068;2023-04-26T07:09:11;97392.19;;;4.71;60.77
3812;BME280;1921;49.368;11.068;2023-04-26T07:11:37;97745.25;;;8.02;59.29
3812;BME280;1921;49.368;11.068;2023-04-26T07:14:04;97698.09;;;8.56;53.63
3812;BME280;1921;49.368;11.068;2023-04-26T07:16:30;97744.03;;;9.37;51.76
3812;BME280;1921;49.368;11.068;2023-04-26T07:18:56;97567.47;;;7.06;54.87
3812;BME280;1921;49.368;11.068;2023-04-26T07:21:25;97577.59;;;8.32;54.22
3812;BME280;1921;49.368;11.068;2023-04-26T07:23:55;97747.19;;;10.50;49.16
3812;BME280;1921;49.368;11.068;2023-04-26T07:26:26;97505.25;;;9.62;48.34
3812;BME280;1921;49.368;11.068;2023-04-26T07:28:52;97617.03;;;10.93;47.42
3812;BME280;1921;49.368;11.068;2023-04-26T07:31:19;97754.41;;;12.27;46.77
3812;BME280;1921;49.368;11.068;2023-04-26T07:33:45;97773.47;;;12.42;45.21
3812;BME280;1921;49.368;11.068;2023-04-26T07:36:11;97816.16;;;12.28;43.46
3812;BME280;1921;49.368;11.068;2023-04-26T07:38:37;97732.09;;;11.80;44.51
3812;BME280;1921;49.368;11.068;2023-04-26T07:41:03;97825.78;;;12.42;46.81
3812;BME280;1921;49.368;11.068;2023-04-26T07:43:30;97750.78;;;12.28;44.06
3812;BME280;1921;49.368;11.068;2023-04-26T07:46:00;97776.97;;;13.35;45.27
3812;BME280;1921;49.368;11.068;2023-04-26T07:48:29;97798.06;;;13.05;42.62
3812;BME280;1921;49.368;11.068;2023-04-26T07:50:55;97669.50;;;13.22;43.62
3812;BME280;1921;49.368;11.068;2023-04-26T07:53:21;97764.31;;;14.14;40.08
3812;BME280;1921;49.368;11.068;2023-04-26T07:55:49;97767.75;;;14.76;40.13
3812;BME280;1921;49.368;11.068;2023-04-26T07:58:15;97775.31;;;14.38;40.24
3812;BME280;1921;49.368;11.068;2023-04-26T08:00:41;97794.72;;;14.02;40.15
3812;BME280;1921;49.368;11.068;2023-04-26T08:03:07;97772.25;;;12.23;41.51
3812;BME280;1921;49.368;11.068;2023-04-26T08:05:33;97742.44;;;10.91;45.18
3812;BME280;1921;49.368;11.068;2023-04-26T08:07:59;97692.75;;;11.08;44.05
3812;BME280;1921;49.368;11.068;2023-04-26T08:10:29;97612.97;;;10.15;45.50
3812;BME280;1921;49.368;11.068;2023-04-26T08:12:55;97531.56;;;10.80;42.75
3812;BME280;1921;49.368;11.068;2023-04-26T08:15:22;97753.50;;;12.99;44.84
3812;BME280;1921;49.368;11.068;2023-04-26T08:17:47;97523.56;;;12.33;41.77
3812;BME280;1921;49.368;11.068;2023-04-26T08:20:17;97677.91;;;13.45;38.65
3812;BME280;1921;49.368;11.068;2023-04-26T08:22:43;97660.72;;;13.77;38.41
3812;BME280;1921;49.368;11.068;2023-04-26T08:25:09;97733.66;;;14.15;38.79
3812;BME280;1921;49.368;11.068;2023-04-26T08:27:35;97753.38;;;13.97;37.52
3812;BME280;1921;49.368;11.068;2023-04-26T08:30:03;97729.09;;;14.43;37.67
3812;BME280;1921;49.368;11.068;2023-04-26T08:32:29;97777.69;;;15.47;38.20
3812;BME280;1921;49.368;11.068;2023-04-26T08:34:55;97748.72;;;16.31;35.76
3812;BME280;1921;49.368;11.068;2023-04-26T08:37:21;97716.31;;;16.31;33.77
3812;BME280;1921;49.368;11.068;2023-04-26T08:39:46;97749.47;;;17.08;34.12
3812;BME280;1921;49.368;11.068;2023-04-26T08:42:15;97789.84;;;16.64;33.75
3812;BME280;1921;49.368;11.068;2023-04-26T08:44:42;97760.22;;;16.37;34.50
3812;BME280;1921;49.368;11.068;2023-04-26T08:47:52;97803.41;;;16.29;34.45
3812;BME280;1921;49.368;11.068;2023-04-26T08:50:20;97744.94;;;14.90;36.27
3812;BME280;1921;49.368;11.068;2023-04-26T08:52:49;97787.81;;;15.17;38.18
3812;BME280;1921;49.368;11.068;2023-04-26T08:55:17;97746.13;;;15.67;36.13
3812;BME280;1921;49.368;11.068;2023-04-26T08:57:48;97771.28;;;16.07;34.61
3812;BME280;1921;49.368;11.068;2023-04-26T09:00:18;97806.22;;;17.11;32.29
3812;BME280;1921;49.368;11.068;2023-04-26T09:02:49;97772.69;;;16.93;34.62
3812;BME280;1921;49.368;11.068;2023-04-26T09:05:16;97742.31;;;15.36;34.51
3812;BME280;1921;49.368;11.068;2023-04-26T09:07:44;97762.59;;;10.83;42.51
3812;BME280;1921;49.368;11.068;2023-04-26T09:10:13;97771.47;;;10.50;43.77
3812;BME280;1921;49.368;11.068;2023-04-26T09:12:41;97778.81;;;11.83;42.88
3812;BME280;1921;49.368;11.068;2023-04-26T09:15:07;97810.44;;;12.18;41.07
3812;BME280;1921;49.368;11.068;2023-04-26T09:17:38;97744.28;;;12.60;38.81
3812;BME280;1921;49.368;11.068;2023-04-26T09:20:25;97809.38;;;13.55;39.01
3812;BME280;1921;49.368;11.068;2023-04-26T09:23:06;97768.47;;;13.54;37.55
3812;BME280;1921;49.368;11.068;2023-04-26T09:25:32;97768.66;;;13.25;38.36
3812;BME280;1921;49.368;11.068;2023-04-26T09:27:59;97764.69;;;13.14;39.28
3812;BME280;1921;49.368;11.068;2023-04-26T09:30:26;97769.47;;;13.94;37.36
3812;BME280;1921;49.368;11.068;2023-04-26T09:40:51;97760.94;;;18.97;28.92
3812;BME280;1921;49.368;11.068;2023-04-26T09:43:19;97749.19;;;18.03;29.87
3812;BME280;1921;49.368;11.068;2023-04-26T09:45:57;97775.47;;;16.66;31.88
3812;BME280;1921;49.368;11.068;2023-04-26T09:48:25;97777.88;;;14.86;32.96
3812;BME280;1921;49.368;11.068;2023-04-26T09:53:41;97744.44;;;13.23;34.69
3812;BME280;1921;49.368;11.068;2023-04-26T09:56:16;97772.84;;;11.89;37.75
3812;BME280;1921;49.368;11.068;2023-04-26T10:01:14;97773.66;;;10.39;42.55
3812;BME280;1921;49.368;11.068;2023-04-26T10:03:41;97747.25;;;11.84;41.61
3812;BME280;1921;49.368;11.068;2023-04-26T10:06:11;97791.91;;;13.41;37.15
3812;BME280;1921;49.368;11.068;2023-04-26T10:08:37;97795.03;;;14.27;36.23
3812;BME280;1921;49.368;11.068;2023-04-26T10:11:04;97719.69;;;14.95;34.45
3812;BME280;1921;49.368;11.068;2023-04-26T10:13:32;97727.34;;;14.84;33.95
3812;BME280;1921;49.368;11.068;2023-04-26T10:15:59;97750.59;;;16.18;32.03
3812;BME280;1921;49.368;11.068;2023-04-26T10:18:26;97774.66;;;16.73;32.00
3812;BME280;1921;49.368;11.068;2023-04-26T10:20:55;97752.91;;;16.39;28.98
3812;BME280;1921;49.368;11.068;2023-04-26T10:23:23;97728.75;;;17.12;29.62
3812;BME280;1921;49.368;11.068;2023-04-26T10:25:51;97702.28;;;16.43;29.33
3812;BME280;1921;49.368;11.068;2023-04-26T10:28:18;97722.28;;;17.33;29.34
3812;BME280;1921;49.368;11.068;2023-04-26T10:31:03;97728.56;;;15.41;30.07
3812;BME280;1921;49.368;11.068;2023-04-26T10:33:30;97746.97;;;16.12;30.23
3812;BME280;1921;49.368;11.068;2023-04-26T10:36:10;97782.97;;;16.63;29.97
3812;BME280;1921;49.368;11.068;2023-04-26T10:39:16;97721.56;;;16.37;29.59
3812;BME280;1921;49.368;11.068;2023-04-26T10:41:32;97713.78;;;16.18;30.97
3812;BME280;1921;49.368;11.068;2023-04-26T10:44:36;97761.69;;;17.28;29.87
3812;BME280;1921;49.368;11.068;2023-04-26T10:47:06;97755.91;;;17.37;29.56
3812;BME280;1921;49.368;11.068;2023-04-26T10:49:44;97727.16;;;17.11;29.30
3812;BME280;1921;49.368;11.068;2023-04-26T10:52:12;97732.84;;;16.83;29.36
3812;BME280;1921;49.368;11.068;2023-04-26T10:55:00;97713.28;;;16.65;30.68
3812;BME280;1921;49.368;11.068;2023-04-26T10:57:50;97736.53;;;17.25;29.36
3812;BME280;1921;49.368;11.068;2023-04-26T11:00:26;97709.03;;;17.21;29.38
3812;BME280;1921;49.368;11.068;2023-04-26T11:02:56;97729.03;;;17.72;28.79
3812;BME280;1921;49.368;11.068;2023-04-26T11:05:35;97749.91;;;17.73;29.15
3812;BME280;1921;49.368;11.068;2023-04-26T11:08:17;97699.97;;;18.09;27.37
3812;BME280;1921;49.368;11.068;2023-04-26T11:10:59;97717.25;;;19.06;25.18
3812;BME280;1921;49.368;11.068;2023-04-26T11:16:07;97692.16;;;20.48;25.07
3812;BME280;1921;49.368;11.068;2023-04-26T11:18:35;97717.59;;;20.78;23.77
3812;BME280;1921;49.368;11.068;2023-04-26T11:21:02;97688.19;;;19.30;25.13
3812;BME280;1921;49.368;11.068;2023-04-26T11:23:30;97735.25;;;14.09;32.21
3812;BME280;1921;49.368;11.068;2023-04-26T11:26:07;97694.47;;;11.89;35.39
3812;BME280;1921;49.368;11.068;2023-04-26T11:28:36;97668.38;;;13.31;34.04
3812;BME280;1921;49.368;11.068;2023-04-26T11:31:03;97704.16;;;14.87;33.01
3812;BME280;1921;49.368;11.068;2023-04-26T11:33:29;97712.59;;;15.35;31.66
3812;BME280;1921;49.368;11.068;2023-04-26T11:35:57;97693.41;;;15.28;31.67
3812;BME280;1921;49.368;11.068;2023-04-26T11:38:27;97672.94;;;15.50;30.93
3812;BME280;1921;49.368;11.068;2023-04-26T11:40:59;97703.53;;;14.98;32.02
3812;BME280;1921;49.368;11.068;2023-04-26T11:43:39;97729.66;;;13.36;34.63
3812;BME280;1921;49.368;11.068;2023-04-26T11:46:07;97689.13;;;13.67;33.72
3812;BME280;1921;49.368;11.068;2023-04-26T11:48:35;97712.00;;;15.07;33.15
3812;BME280;1921;49.368;11.068;2023-04-26T11:51:05;97678.97;;;15.64;31.98
3812;BME280;1921;49.368;11.068;2023-04-26T11:53:37;97682.06;;;16.69;30.78
3812;BME280;1921;49.368;11.068;2023-04-26T11:56:17;97699.44;;;17.02;30.17
3812;BME280;1921;49.368;11.068;2023-04-26T11:58:46;97714.00;;;15.38;31.90
3812;BME280;1921;49.368;11.068;2023-04-26T12:01:25;97681.38;;;16.17;30.83
3812;BME280;1921;49.368;11.068;2023-04-26T12:03:56;97722.19;;;16.64;30.33
3812;BME280;1921;49.368;11.068;2023-04-26T12:06:30;97730.94;;;16.65;30.30
3812;BME280;1921;49.368;11.068;2023-04-26T12:09:01;97678.06;;;15.05;31.92
3812;BME280;1921;49.368;11.068;2023-04-26T12:11:29;97729.56;;;15.53;31.29
3812;BME280;1921;49.368;11.068;2023-04-26T12:13:57;97662.63;;;16.38;31.04
3812;BME280;1921;49.368;11.068;2023-04-26T12:16:24;97676.47;;;16.90;30.03
3812;BME280;1921;49.368;11.068;2023-04-26T12:18:50;97675.91;;;16.82;28.35
3812;BME280;1921;49.368;11.068;2023-04-26T12:21:17;97681.38;;;17.48;27.98
3812;BME280;1921;49.368;11.068;2023-04-26T12:23:43;97665.25;;;15.62;30.40
3812;BME280;1921;49.368;11.068;2023-04-26T12:26:12;97711.22;;;15.00;31.52
3812;BME280;1921;49.368;11.068;2023-04-26T12:28:38;97641.75;;;14.69;31.35
3812;BME280;1921;49.368;11.068;2023-04-26T12:31:04;97645.19;;;15.74;30.35
3812;BME280;1921;49.368;11.068;2023-04-26T12:33:31;97653.47;;;16.16;30.86
3812;BME280;1921;49.368;11.068;2023-04-26T12:36:05;97646.72;;;16.58;29.76
3812;BME280;1921;49.368;11.068;2023-04-26T12:38:31;97644.53;;;17.60;29.24
3812;BME280;1921;49.368;11.068;2023-04-26T12:40:57;97684.59;;;18.36;28.30
3812;BME280;1921;49.368;11.068;2023-04-26T12:43:23;97686.72;;;18.57;27.79
3812;BME280;1921;49.368;11.068;2023-04-26T12:45:51;97684.59;;;17.69;29.47
3812;BME280;1921;49.368;11.068;2023-04-26T12:48:16;97674.16;;;17.19;28.80
3812;BME280;1921;49.368;11.068;2023-04-26T12:50:42;97700.88;;;17.66;28.74
3812;BME280;1921;49.368;11.068;2023-04-26T12:53:08;97638.72;;;16.97;28.84
3812;BME280;1921;49.368;11.068;2023-04-26T12:55:35;97642.25;;;17.09;28.05
3812;BME280;1921;49.368;11.068;2023-04-26T12:58:01;97691.94;;;17.05;28.35
3812;BME280;1921;49.368;11.068;2023-04-26T13:00:27;97669.06;;;15.59;30.06
3812;BME280;1921;49.368;11.068;2023-04-26T13:02:53;97684.44;;;16.14;30.94
3812;BME280;1921;49.368;11.068;2023-04-26T13:05:19;97656.59;;;16.88;29.66
3812;BME280;1921;49.368;11.068;2023-04-26T13:07:45;97673.47;;;17.67;28.30
3812;BME280;1921;49.368;11.068;2023-04-26T13:10:12;97691.88;;;18.22;28.24
3812;BME280;1921;49.368;11.068;2023-04-26T13:12:38;97628.22;;;18.95;26.59
3812;BME280;1921;49.368;11.068;2023-04-26T13:15:06;97650.38;;;18.71;26.73
3812;BME280;1921;49.368;11.068;2023-04-26T13:17:34;97632.91;;;18.70;26.07
3812;BME280;1921;49.368;11.068;2023-04-26T13:20:00;97629.19;;;18.17;26.55
3812;BME280;1921;49.368;11.068;2023-04-26T13:22:26;97655.50;;;17.94;28.29
3812;BME280;1921;49.368;11.068;2023-04-26T13:24:52;97649.34;;;18.83;27.82
3812;BME280;1921;49.368;11.068;2023-04-26T13:27:18;97662.75;;;19.52;27.15
3812;BME280;1921;49.368;11.068;2023-04-26T13:29:43;97635.72;;;18.45;26.52
3812;BME280;1921;49.368;11.068;2023-04-26T13:32:09;97662.88;;;18.87;27.29
3812;BME280;1921;49.368;11.068;2023-04-26T13:34:35;97653.00;;;19.29;26.08
3812;BME280;1921;49.368;11.068;2023-04-26T13:37:01;97666.09;;;16.01;29.96